createdAt,value
2024-04-11T00:01:24.770Z,8.03
2024-04-11T00:03:55.389Z,8.00
2024-04-11T00:06:22.746Z,8.02
2024-04-11T00:08:55.581Z,8.01
2024-04-11T00:11:23.081Z,7.86
2024-04-11T00:13:52.922Z,7.82
2024-04-11T00:16:20.092Z,7.78
2024-04-11T00:18:49.999Z,7.92
2024-04-11T00:21:19.484Z,7.90
2024-04-11T00:23:52.170Z,8.15
2024-04-11T00:26:23.417Z,7.94
2024-04-11T00:31:43.559Z,7.70
2024-04-11T00:34:25.101Z,7.58
2024-04-11T00:36:54.526Z,7.65
2024-04-11T00:39:25.289Z,7.63
2024-04-11T00:41:58.644Z,7.60
2024-04-11T00:44:30.607Z,7.64
2024-04-11T00:46:58.605Z,7.69
2024-04-11T00:49:29.914Z,7.84
2024-04-11T00:51:59.363Z,7.93
2024-04-11T00:54:32.515Z,7.93
2024-04-11T00:57:05.623Z,7.95
2024-04-11T00:59:36.635Z,8.02
2024-04-11T01:02:05.950Z,8.03
2024-04-11T01:04:37.115Z,8.10
2024-04-11T01:07:07.982Z,7.86
2024-04-11T01:09:40.144Z,7.89
2024-04-11T01:12:13.405Z,7.98
2024-04-11T01:14:42.295Z,7.78
2024-04-11T01:17:12.973Z,7.73
2024-04-11T01:19:41.993Z,7.72
2024-04-11T01:22:12.535Z,7.75
2024-04-11T01:24:42.496Z,7.78
2024-04-11T01:27:15.700Z,7.61
2024-04-11T01:29:43.356Z,7.68
2024-04-11T01:32:14.976Z,7.86
2024-04-11T01:34:42.970Z,7.64
2024-04-11T01:37:12.970Z,7.49
2024-04-11T01:39:42.873Z,7.60
2024-04-11T01:42:12.821Z,7.70
2024-04-11T01:44:40.127Z,7.74
2024-04-11T01:47:10.056Z,7.65
2024-04-11T01:49:37.197Z,7.54
2024-04-11T01:52:11.204Z,7.66
2024-04-11T01:54:38.686Z,7.35
2024-04-11T01:57:11.967Z,7.50
2024-04-11T01:59:39.322Z,7.52
2024-04-11T02:02:09.844Z,7.66
2024-04-11T02:04:37.200Z,7.30
2024-04-11T02:07:07.109Z,7.13
2024-04-11T02:09:35.391Z,7.17
2024-04-11T02:12:05.198Z,7.15
2024-04-11T02:14:37.799Z,7.02
2024-04-11T02:17:08.706Z,7.28
2024-04-11T02:19:38.363Z,7.06
2024-04-11T02:22:08.896Z,7.10
2024-04-11T02:24:37.578Z,7.19
2024-04-11T02:27:09.362Z,7.26
2024-04-11T02:29:39.359Z,7.28
2024-04-11T02:32:13.038Z,7.36
2024-04-11T02:34:40.474Z,6.94
2024-04-11T02:37:10.191Z,6.90
2024-04-11T02:39:37.421Z,7.01
2024-04-11T02:42:09.170Z,6.81
2024-04-11T02:44:41.672Z,6.68
2024-04-11T02:47:11.558Z,6.70
2024-04-11T02:49:41.656Z,6.67
2024-04-11T02:52:11.472Z,6.77
2024-04-11T02:54:38.705Z,6.91
2024-04-11T02:57:09.054Z,6.87
2024-04-11T02:59:39.635Z,6.79
2024-04-11T03:02:11.653Z,6.95
2024-04-11T03:04:39.483Z,6.82
2024-04-11T03:07:09.298Z,6.74
2024-04-11T03:09:37.130Z,6.67
2024-04-11T03:12:08.064Z,6.58
2024-04-11T03:14:35.382Z,6.49
2024-04-11T03:17:08.057Z,6.78
2024-04-11T03:19:35.793Z,6.60
2024-04-11T03:22:07.143Z,6.48
2024-04-11T03:24:34.641Z,6.61
2024-04-11T03:27:05.132Z,6.61
2024-04-11T03:29:32.556Z,6.41
2024-04-11T03:32:03.207Z,6.37
2024-04-11T03:34:33.357Z,6.68
2024-04-11T03:37:04.642Z,6.73
2024-04-11T03:39:32.160Z,6.55
2024-04-11T03:42:02.867Z,6.46
2024-04-11T03:44:33.014Z,6.53
2024-04-11T03:47:02.888Z,6.60
2024-04-11T03:49:39.305Z,6.50
2024-04-11T03:52:07.387Z,6.40
2024-04-11T03:54:39.080Z,6.45
2024-04-11T03:57:08.464Z,6.56
2024-04-11T03:59:38.611Z,6.15
2024-04-11T04:02:06.010Z,6.46
2024-04-11T04:04:38.778Z,6.53
2024-04-11T04:07:09.120Z,6.56
2024-04-11T04:09:41.587Z,6.63
2024-04-11T04:12:09.017Z,6.63
2024-04-11T04:14:38.834Z,6.71
2024-04-11T04:17:06.534Z,6.87
2024-04-11T04:19:38.976Z,6.61
2024-04-11T04:22:09.755Z,6.53
2024-04-11T04:24:39.579Z,6.55
2024-04-11T04:27:08.336Z,6.84
2024-04-11T04:29:39.774Z,6.70
2024-04-11T04:32:07.355Z,6.75
2024-04-11T04:34:39.906Z,6.73
2024-04-11T04:37:09.308Z,6.77
2024-04-11T04:39:42.639Z,6.69
2024-04-11T04:42:10.026Z,6.64
2024-04-11T04:44:41.383Z,7.46
2024-04-11T04:47:17.815Z,7.71
2024-04-11T04:49:54.632Z,7.68
2024-04-11T04:52:26.266Z,7.09
2024-04-11T04:54:53.474Z,6.81
2024-04-11T04:57:23.593Z,7.01
2024-04-11T04:59:50.895Z,6.70
2024-04-11T05:02:25.644Z,6.72
2024-04-11T05:04:56.961Z,6.75
2024-04-11T05:07:26.853Z,6.79
2024-04-11T05:09:55.128Z,6.68
2024-04-11T05:12:27.097Z,6.63
2024-04-11T05:14:54.509Z,6.86
2024-04-11T05:17:24.778Z,6.62
2024-04-11T05:19:52.827Z,6.95
2024-04-11T05:22:28.092Z,7.08
2024-04-11T05:24:59.226Z,7.03
2024-04-11T05:27:32.023Z,7.01
2024-04-11T05:29:59.449Z,6.98
2024-04-11T05:32:29.729Z,7.05
2024-04-11T05:34:56.896Z,7.26
2024-04-11T05:37:30.957Z,7.19
2024-04-11T05:40:01.407Z,7.31
2024-04-11T05:42:31.501Z,7.36
2024-04-11T05:44:59.069Z,7.53
2024-04-11T05:47:29.216Z,7.50
2024-04-11T05:49:56.616Z,7.72
2024-04-11T05:52:32.208Z,7.67
2024-04-11T05:54:59.447Z,8.57
2024-04-11T05:57:30.020Z,7.85
2024-04-11T05:59:57.353Z,7.88
2024-04-11T06:02:35.857Z,7.85
2024-04-11T06:05:05.527Z,8.00
2024-04-11T06:07:41.275Z,8.10
2024-04-11T06:10:13.418Z,8.12
2024-04-11T06:12:43.513Z,8.33
2024-04-11T06:15:13.231Z,8.31
2024-04-11T06:17:44.096Z,8.45
2024-04-11T06:20:17.426Z,8.51
2024-04-11T06:22:53.396Z,8.67
2024-04-11T06:25:21.512Z,8.73
2024-04-11T06:27:53.578Z,8.88
2024-04-11T06:30:21.064Z,8.98
2024-04-11T06:32:53.184Z,9.06
2024-04-11T06:35:20.472Z,9.13
2024-04-11T06:37:53.164Z,9.20
2024-04-11T06:40:20.585Z,9.38
2024-04-11T06:42:51.391Z,9.42
2024-04-11T06:45:22.981Z,9.49
2024-04-11T06:47:54.025Z,9.67
2024-04-11T06:50:22.831Z,9.78
2024-04-11T06:52:55.955Z,9.83
2024-04-11T06:55:25.455Z,10.04
2024-04-11T06:57:58.440Z,10.16
2024-04-11T07:00:29.845Z,10.32
2024-04-11T07:03:03.731Z,10.46
2024-04-11T07:05:31.512Z,10.59
2024-04-11T07:08:06.077Z,10.71
2024-04-11T07:10:37.850Z,10.72
2024-04-11T07:13:09.549Z,10.86
2024-04-11T07:15:44.111Z,10.89
2024-04-11T07:18:16.454Z,11.11
2024-04-11T07:20:51.368Z,11.18
2024-04-11T07:23:24.365Z,11.36
2024-04-11T07:25:52.066Z,11.49
2024-04-11T07:28:22.228Z,11.63
2024-04-11T07:30:50.643Z,11.77
2024-04-11T07:33:24.900Z,11.84
2024-04-11T07:35:52.388Z,12.03
2024-04-11T07:38:27.878Z,12.15
2024-04-11T07:40:56.017Z,12.21
2024-04-11T07:43:28.245Z,12.31
2024-04-11T07:45:56.117Z,12.43
2024-04-11T07:48:29.610Z,12.54
2024-04-11T07:51:03.779Z,12.64
2024-04-11T07:53:36.242Z,12.74
2024-04-11T07:56:03.452Z,12.87
2024-04-11T07:58:34.474Z,13.04
2024-04-11T08:01:03.344Z,13.03
2024-04-11T08:03:33.477Z,13.04
2024-04-11T08:06:00.930Z,13.05
2024-04-11T08:08:31.134Z,13.06
2024-04-11T08:11:04.411Z,13.11
2024-04-11T08:13:37.694Z,13.15
2024-04-11T08:16:10.439Z,13.26
2024-04-11T08:18:43.107Z,13.35
2024-04-11T08:21:10.318Z,13.47
2024-04-11T08:23:40.730Z,13.58
2024-04-11T08:26:14.218Z,13.76
2024-04-11T08:28:44.830Z,13.88
2024-04-11T08:31:14.422Z,13.85
2024-04-11T08:33:44.487Z,14.02
2024-04-11T08:36:14.144Z,14.12
2024-04-11T08:38:44.991Z,14.27
2024-04-11T08:41:17.750Z,14.31
2024-04-11T08:43:48.423Z,14.31
2024-04-11T08:46:15.874Z,14.50
2024-04-11T08:48:45.893Z,14.37
2024-04-11T08:51:21.070Z,14.54
2024-04-11T08:54:00.768Z,14.69
2024-04-11T08:56:34.227Z,14.88
2024-04-11T08:59:06.606Z,14.93
2024-04-11T09:01:35.236Z,14.99
2024-04-11T09:04:06.218Z,15.02
2024-04-11T09:06:34.787Z,15.20
2024-04-11T09:09:11.399Z,15.19
2024-04-11T09:11:45.734Z,15.11
2024-04-11T09:14:16.328Z,14.91
2024-04-11T09:16:43.786Z,15.04
2024-04-11T09:19:14.424Z,15.06
2024-04-11T09:21:46.100Z,15.15
2024-04-11T09:24:18.923Z,15.04
2024-04-11T09:26:49.403Z,15.25
2024-04-11T09:29:22.364Z,15.30
2024-04-11T09:31:56.213Z,15.52
2024-04-11T09:34:32.090Z,15.54
2024-04-11T09:37:00.632Z,15.53
2024-04-11T09:39:47.622Z,15.80
2024-04-11T09:42:22.192Z,15.71
2024-04-11T09:44:55.200Z,16.07
2024-04-11T09:47:28.839Z,15.97
2024-04-11T09:50:01.022Z,16.06
2024-04-11T09:52:34.953Z,16.13
2024-04-11T09:55:09.731Z,16.23
2024-04-11T09:57:43.427Z,16.43
2024-04-11T10:00:24.214Z,16.46
2024-04-11T10:02:54.947Z,16.33
2024-04-11T10:05:26.900Z,16.34
2024-04-11T10:08:02.951Z,16.35
2024-04-11T10:10:38.455Z,16.19
2024-04-11T10:13:13.794Z,16.18
2024-04-11T10:15:44.499Z,16.32
2024-04-11T10:18:12.806Z,16.41
2024-04-11T10:20:44.405Z,16.32
2024-04-11T10:23:17.112Z,16.40
2024-04-11T10:25:57.475Z,16.47
2024-04-11T10:28:39.771Z,16.43
2024-04-11T10:31:12.889Z,16.32
2024-04-11T10:33:54.554Z,16.46
2024-04-11T10:36:27.144Z,16.64
2024-04-11T10:38:56.660Z,16.57
2024-04-11T10:41:29.642Z,16.47
2024-04-11T10:44:03.350Z,16.33
2024-04-11T10:46:35.446Z,16.37
2024-04-11T10:49:13.937Z,16.53
2024-04-11T10:51:44.346Z,16.40
2024-04-11T10:54:11.836Z,16.39
2024-04-11T10:56:46.398Z,16.30
2024-04-11T10:59:22.807Z,16.39
2024-04-11T11:02:06.517Z,16.51
2024-04-11T11:04:36.002Z,16.53
2024-04-11T11:07:14.941Z,16.51
2024-04-11T11:09:44.386Z,16.59
2024-04-11T11:12:17.551Z,16.53
2024-04-11T11:14:48.261Z,16.72
2024-04-11T11:17:20.919Z,16.56
2024-04-11T11:19:51.547Z,16.66
2024-04-11T11:22:42.440Z,16.65
2024-04-11T11:25:13.055Z,16.54
2024-04-11T11:27:42.966Z,16.46
2024-04-11T11:30:17.929Z,16.31
2024-04-11T11:33:19.129Z,16.43
2024-04-11T11:35:49.019Z,16.37
2024-04-11T11:38:20.988Z,16.36
2024-04-11T11:40:55.216Z,16.35
2024-04-11T11:43:24.806Z,16.34
2024-04-11T11:46:09.431Z,16.35
2024-04-11T11:48:39.603Z,16.37
2024-04-11T11:51:07.362Z,16.37
2024-04-11T11:53:46.909Z,16.36
2024-04-11T11:56:14.268Z,16.50
2024-04-11T11:58:45.355Z,16.56
2024-04-11T12:01:30.363Z,16.70
2024-04-11T12:04:04.403Z,16.70
2024-04-11T12:06:35.756Z,16.56
2024-04-11T12:09:11.580Z,16.49
2024-04-11T12:11:54.544Z,16.60
2024-04-11T12:14:36.229Z,16.76
2024-04-11T12:17:06.922Z,16.66
2024-04-11T12:19:37.456Z,16.75
2024-04-11T12:22:12.931Z,16.82
2024-04-11T12:24:43.489Z,16.68
2024-04-11T12:27:15.309Z,16.64
2024-04-11T12:29:47.270Z,16.70
2024-04-11T12:32:20.350Z,16.85
2024-04-11T12:34:58.949Z,16.84
2024-04-11T12:37:26.847Z,16.90
2024-04-11T12:39:58.192Z,16.92
2024-04-11T12:42:31.640Z,17.02
2024-04-11T12:45:09.921Z,17.02
2024-04-11T12:47:42.052Z,17.05
2024-04-11T12:50:14.709Z,17.12
2024-04-11T12:52:46.458Z,17.25
2024-04-11T12:55:26.582Z,17.08
2024-04-11T12:58:03.454Z,17.10
2024-04-11T13:00:45.956Z,17.28
2024-04-11T13:03:21.099Z,17.32
2024-04-11T13:06:01.639Z,17.31
2024-04-11T13:08:35.210Z,17.18
2024-04-11T13:11:11.754Z,17.11
2024-04-11T13:13:49.626Z,17.33
2024-04-11T14:09:29.868Z,16.68
2024-04-11T14:12:15.504Z,16.69
2024-04-11T14:14:45.230Z,16.77
2024-04-11T14:17:30.780Z,16.88
2024-04-11T14:20:15.867Z,16.79
2024-04-11T14:40:28.079Z,17.08
2024-04-11T14:43:04.954Z,17.20
2024-04-11T14:45:42.739Z,17.11
2024-04-11T14:48:20.705Z,17.07
2024-04-11T14:51:10.382Z,17.06
2024-04-11T14:53:50.145Z,17.12
2024-04-11T14:56:40.118Z,17.01
2024-04-11T14:59:12.724Z,16.97
2024-04-11T15:01:56.425Z,16.84
2024-04-11T15:04:30.488Z,16.94
2024-04-11T15:07:12.494Z,16.99
2024-04-11T15:09:46.341Z,16.90
2024-04-11T15:16:29.885Z,16.72
2024-04-11T15:23:12.729Z,16.69
2024-04-11T15:25:43.888Z,16.81
2024-04-11T15:28:33.693Z,16.90
2024-04-11T15:31:15.637Z,16.90
2024-04-11T15:34:10.377Z,16.77
2024-04-11T15:36:56.455Z,16.85
2024-04-11T15:43:51.069Z,16.80
2024-04-11T15:46:46.042Z,16.78
2024-04-11T15:49:20.278Z,16.89
2024-04-11T15:52:01.029Z,16.79
2024-04-11T15:54:38.794Z,16.87
2024-04-11T15:57:13.040Z,16.97
2024-04-11T15:59:48.832Z,16.89
2024-04-11T16:02:20.012Z,16.93
2024-04-11T16:04:52.808Z,16.79
2024-04-11T16:07:28.599Z,16.80
2024-04-11T16:09:56.133Z,16.82
2024-04-11T16:12:36.266Z,16.83
2024-04-11T16:15:14.947Z,16.85
2024-04-11T16:17:49.497Z,16.76
2024-04-11T16:20:17.465Z,16.76
2024-04-11T16:22:47.827Z,16.79
2024-04-11T16:25:21.084Z,16.88
2024-04-11T16:27:59.134Z,16.79
2024-04-11T16:30:44.898Z,16.90
2024-04-11T16:33:14.869Z,16.94
2024-04-11T16:35:42.400Z,16.98
2024-04-11T16:38:15.531Z,17.14
2024-04-11T16:40:42.822Z,17.26
2024-04-11T16:43:12.637Z,17.28
2024-04-11T16:45:43.098Z,17.28
2024-04-11T16:48:15.186Z,17.50
2024-04-11T16:50:47.096Z,17.48
2024-04-11T16:53:30.403Z,17.52
2024-04-11T16:56:05.693Z,17.57
2024-04-11T16:58:49.866Z,17.34
2024-04-11T17:01:31.326Z,17.32
2024-04-11T17:04:06.484Z,17.23
2024-04-11T17:06:33.869Z,17.29
2024-04-11T17:09:05.390Z,17.21
2024-04-11T17:11:37.294Z,17.26
2024-04-11T17:14:07.876Z,17.18
2024-04-11T17:17:01.316Z,16.87
2024-04-11T17:19:40.849Z,17.02
2024-04-11T17:22:08.227Z,17.00
2024-04-11T17:24:38.995Z,17.01
2024-04-11T17:27:08.197Z,17.00
2024-04-11T17:29:48.845Z,16.91
2024-04-11T17:32:24.871Z,16.92
2024-04-11T17:34:56.740Z,16.72
2024-04-11T17:37:40.867Z,16.66
2024-04-11T17:40:27.169Z,16.35
2024-04-11T17:42:59.520Z,16.44
2024-04-11T17:45:32.892Z,16.46
2024-04-11T17:48:07.431Z,16.31
2024-04-11T17:51:05.217Z,16.46
2024-04-11T17:53:36.211Z,16.18
2024-04-11T17:56:11.044Z,16.35
2024-04-11T17:58:41.263Z,16.31
2024-04-11T18:01:11.560Z,16.34
2024-04-11T18:03:54.305Z,16.07
2024-04-11T18:06:28.719Z,16.17
2024-04-11T18:08:57.056Z,16.22
2024-04-11T18:11:35.900Z,16.06
2024-04-11T18:14:08.092Z,16.12
2024-04-11T18:16:55.121Z,15.82
2024-04-11T18:19:33.462Z,15.82
2024-04-11T18:22:05.620Z,15.91
2024-04-11T18:24:33.993Z,15.66
2024-04-11T18:27:06.280Z,15.74
2024-04-11T18:29:36.400Z,15.59
2024-04-11T18:32:06.770Z,15.42
2024-04-11T18:34:41.736Z,15.19
2024-04-11T18:37:25.163Z,15.11
2024-04-11T18:40:20.356Z,15.27
2024-04-11T18:42:59.115Z,15.35
2024-04-11T18:45:36.980Z,15.21
2024-04-11T18:48:20.958Z,15.10
2024-04-11T18:50:53.966Z,14.93
2024-04-11T18:53:26.229Z,14.54
2024-04-11T18:55:56.727Z,14.80
2024-04-11T18:58:33.278Z,15.18
2024-04-11T19:01:06.719Z,15.28
2024-04-11T19:03:41.737Z,15.28
2024-04-11T19:07:08.421Z,15.23
2024-04-11T19:13:13.215Z,15.13
2024-04-11T19:15:49.099Z,15.16
2024-04-11T19:18:26.173Z,15.06
2024-04-11T19:21:05.824Z,15.10
2024-04-11T19:23:37.632Z,14.97
2024-04-11T19:26:15.709Z,15.08
2024-04-11T19:28:49.266Z,14.92
2024-04-11T19:31:28.004Z,14.92
2024-04-11T19:34:00.958Z,15.05
2024-04-11T19:36:45.078Z,14.88
2024-04-11T19:39:16.409Z,14.91
2024-04-11T19:41:56.741Z,14.86
2024-04-11T19:44:25.108Z,14.99
2024-04-11T19:47:03.888Z,15.04
2024-04-11T19:49:36.111Z,14.96
2024-04-11T19:52:10.440Z,15.04
2024-04-11T19:54:48.968Z,15.09
2024-04-11T19:57:20.978Z,15.07
2024-04-11T19:59:48.128Z,15.16
2024-04-11T20:02:20.003Z,14.97
2024-04-11T20:04:52.292Z,15.14
2024-04-11T20:07:22.817Z,15.07
2024-04-11T20:09:52.828Z,15.24
2024-04-11T20:12:28.170Z,15.25
2024-04-11T20:15:28.251Z,15.28
2024-04-11T20:17:59.249Z,15.28
2024-04-11T20:20:32.134Z,15.25
2024-04-11T20:23:10.383Z,15.17
2024-04-11T20:25:41.203Z,15.12
2024-04-11T20:28:20.026Z,15.25
2024-04-11T20:30:48.710Z,15.09
2024-04-11T20:33:38.227Z,15.18
2024-04-11T20:36:11.152Z,15.20
2024-04-11T20:38:45.247Z,15.21
2024-04-11T20:41:29.872Z,15.02
2024-04-11T20:44:24.358Z,15.22
2024-04-11T20:46:59.707Z,15.29
2024-04-11T20:50:00.195Z,15.19
2024-04-11T20:52:46.406Z,15.09
2024-04-11T20:55:33.145Z,15.23
2024-04-11T20:58:24.079Z,15.25
2024-04-11T21:01:12.341Z,15.23
2024-04-11T21:04:06.627Z,15.12
2024-04-11T21:06:52.733Z,15.18
2024-04-11T21:09:41.173Z,15.24
2024-04-11T21:12:29.929Z,15.31
2024-04-11T21:15:18.434Z,15.23
2024-04-11T21:18:04.040Z,15.24
2024-04-11T21:20:49.919Z,15.20
2024-04-11T21:23:35.794Z,15.19
2024-04-11T21:26:27.039Z,15.25
2024-04-11T21:29:13.506Z,15.24
2024-04-11T21:32:02.019Z,15.23
2024-04-11T21:34:33.883Z,15.16
2024-04-11T21:37:04.200Z,15.20
2024-04-11T21:39:36.362Z,15.21
2024-04-11T21:42:09.029Z,15.27
2024-04-11T21:44:45.162Z,15.28
2024-04-11T21:47:14.970Z,15.27
2024-04-11T21:49:44.883Z,15.21
2024-04-11T21:52:14.273Z,15.26
2024-04-11T21:54:50.431Z,15.28
2024-04-11T21:57:24.302Z,15.20
2024-04-11T21:59:58.242Z,15.04
2024-04-11T22:02:28.200Z,15.21
2024-04-11T22:04:58.277Z,15.12
2024-04-11T22:07:25.473Z,15.27
2024-04-11T22:10:02.218Z,15.19
2024-04-11T22:12:30.731Z,15.21
2024-04-11T22:15:03.137Z,15.25
2024-04-11T22:17:35.472Z,15.04
2024-04-11T22:20:14.111Z,15.26
2024-04-11T22:22:47.095Z,15.28
2024-04-11T22:25:18.134Z,15.06
2024-04-11T22:27:49.674Z,15.18
2024-04-11T22:30:27.012Z,15.14
2024-04-11T22:33:03.152Z,15.17
2024-04-11T22:35:33.464Z,14.90
2024-04-11T22:38:00.823Z,14.97
2024-04-11T22:40:31.802Z,15.08
2024-04-11T22:42:59.861Z,15.09
2024-04-11T22:45:30.890Z,15.05
2024-04-11T22:48:01.247Z,15.09
2024-04-11T22:50:31.694Z,15.06
2024-04-11T22:53:01.199Z,15.09
2024-04-11T22:55:35.304Z,15.08
2024-04-11T22:58:06.442Z,15.08
2024-04-11T23:00:48.638Z,15.07
2024-04-11T23:03:21.918Z,14.94
2024-04-11T23:05:57.115Z,15.03
2024-04-11T23:08:26.444Z,14.82
2024-04-11T23:10:56.320Z,14.92
2024-04-11T23:13:32.670Z,15.04
2024-04-11T23:16:06.739Z,14.92
2024-04-11T23:18:40.228Z,14.94
2024-04-11T23:21:11.917Z,14.95
2024-04-11T23:23:40.212Z,14.94
2024-04-11T23:26:15.848Z,14.96
2024-04-11T23:28:46.670Z,14.90
2024-04-11T23:31:17.799Z,14.91
2024-04-11T23:33:58.053Z,14.84
2024-04-11T23:36:31.673Z,14.82
2024-04-11T23:39:01.199Z,14.85
2024-04-11T23:41:35.567Z,14.81
2024-04-11T23:44:04.586Z,14.79
2024-04-11T23:46:36.150Z,14.76
2024-04-11T23:49:09.169Z,14.79
2024-04-11T23:51:46.951Z,14.78
2024-04-11T23:54:19.638Z,14.73
2024-04-11T23:57:04.205Z,14.60
2024-04-11T23:59:39.706Z,14.61
